Terminal Aerodrome Forecast
Issued by NWS

Home | Current Version | Previous Version | Text Only | Print | Product List | Glossary On
Versions: 1 2 3 4 5 6 7 8 9 10 11 12 13 14
962
FTUS41 KLWX 302320
TAFMTN
TAF
KMTN 302320Z 0100/0124 14006KT 6SM -RA BKN025 OVC050
     FM010700 13008KT 3SM RA BR OVC015
     FM011200 13007KT 5SM -RA BR BKN008 OVC015
     FM011700 14007KT P6SM BKN008 OVC015
     FM012200 VRB04KT P6SM BKN015 OVC050
      AMD NOT SKED 0102/0112=

USA.gov is the U.S. government's official web portal to all federal, state and local government web resources and services.